sensor_id;sensor_type;location;lat;lon;timestamp;P1;durP1;ratioP1;P2;durP2;ratioP2
11604;SDS011;5858;43.076;25.626;2022-10-16T00:01:25;9.87;;;7.33;;
11604;SDS011;5858;43.076;25.626;2022-10-16T00:03:54;9.73;;;7.90;;
11604;SDS011;5858;43.076;25.626;2022-10-16T00:06:21;7.83;;;6.73;;
11604;SDS011;5858;43.076;25.626;2022-10-16T00:08:50;8.37;;;7.47;;
11604;SDS011;5858;43.076;25.626;2022-10-16T00:11:18;7.53;;;6.73;;
11604;SDS011;5858;43.076;25.626;2022-10-16T00:13:47;9.40;;;7.10;;
11604;SDS011;5858;43.076;25.626;2022-10-16T00:16:15;8.83;;;6.73;;
11604;SDS011;5858;43.076;25.626;2022-10-16T00:18:45;7.70;;;6.70;;
11604;SDS011;5858;43.076;25.626;2022-10-16T00:21:13;9.83;;;7.43;;
11604;SDS011;5858;43.076;25.626;2022-10-16T00:23:42;10.50;;;6.80;;
11604;SDS011;5858;43.076;25.626;2022-10-16T00:26:12;9.73;;;8.10;;
11604;SDS011;5858;43.076;25.626;2022-10-16T00:28:40;9.40;;;7.33;;
11604;SDS011;5858;43.076;25.626;2022-10-16T00:31:08;9.17;;;7.10;;
11604;SDS011;5858;43.076;25.626;2022-10-16T00:33:38;9.10;;;6.97;;
11604;SDS011;5858;43.076;25.626;2022-10-16T00:36:06;10.30;;;7.17;;
11604;SDS011;5858;43.076;25.626;2022-10-16T00:38:35;8.47;;;7.50;;
11604;SDS011;5858;43.076;25.626;2022-10-16T00:41:03;7.80;;;6.97;;
11604;SDS011;5858;43.076;25.626;2022-10-16T00:43:36;9.57;;;6.90;;
11604;SDS011;5858;43.076;25.626;2022-10-16T00:46:07;8.40;;;6.30;;
11604;SDS011;5858;43.076;25.626;2022-10-16T00:48:43;11.17;;;7.37;;
11604;SDS011;5858;43.076;25.626;2022-10-16T00:51:17;9.97;;;7.20;;
11604;SDS011;5858;43.076;25.626;2022-10-16T00:53:48;9.30;;;7.23;;
11604;SDS011;5858;43.076;25.626;2022-10-16T00:56:15;9.83;;;7.67;;
11604;SDS011;5858;43.076;25.626;2022-10-16T00:58:44;8.33;;;6.90;;
11604;SDS011;5858;43.076;25.626;2022-10-16T01:01:11;7.50;;;6.70;;
11604;SDS011;5858;43.076;25.626;2022-10-16T01:03:41;9.30;;;7.73;;
11604;SDS011;5858;43.076;25.626;2022-10-16T01:06:11;9.23;;;7.47;;
11604;SDS011;5858;43.076;25.626;2022-10-16T01:08:57;7.63;;;6.80;;
11604;SDS011;5858;43.076;25.626;2022-10-16T01:11:33;8.10;;;6.30;;
11604;SDS011;5858;43.076;25.626;2022-10-16T01:14:11;8.20;;;6.90;;
11604;SDS011;5858;43.076;25.626;2022-10-16T01:16:47;7.60;;;6.80;;
11604;SDS011;5858;43.076;25.626;2022-10-16T01:19:20;11.20;;;9.27;;
11604;SDS011;5858;43.076;25.626;2022-10-16T01:22:01;8.80;;;6.97;;
11604;SDS011;5858;43.076;25.626;2022-10-16T01:24:31;10.40;;;7.07;;
11604;SDS011;5858;43.076;25.626;2022-10-16T01:27:16;7.57;;;6.77;;
11604;SDS011;5858;43.076;25.626;2022-10-16T01:29:49;7.77;;;7.07;;
11604;SDS011;5858;43.076;25.626;2022-10-16T01:32:21;14.27;;;8.43;;
11604;SDS011;5858;43.076;25.626;2022-10-16T01:34:55;11.17;;;7.13;;
11604;SDS011;5858;43.076;25.626;2022-10-16T01:37:31;14.33;;;7.63;;
11604;SDS011;5858;43.076;25.626;2022-10-16T01:40:02;9.40;;;7.00;;
11604;SDS011;5858;43.076;25.626;2022-10-16T01:42:36;8.63;;;7.00;;
11604;SDS011;5858;43.076;25.626;2022-10-16T01:45:08;7.30;;;6.50;;
11604;SDS011;5858;43.076;25.626;2022-10-16T01:47:38;8.40;;;6.73;;
11604;SDS011;5858;43.076;25.626;2022-10-16T01:50:06;8.20;;;6.73;;
11604;SDS011;5858;43.076;25.626;2022-10-16T01:52:34;7.43;;;6.53;;
11604;SDS011;5858;43.076;25.626;2022-10-16T01:55:05;10.23;;;7.17;;
11604;SDS011;5858;43.076;25.626;2022-10-16T01:57:35;9.57;;;7.47;;
11604;SDS011;5858;43.076;25.626;2022-10-16T02:00:07;8.03;;;7.10;;
11604;SDS011;5858;43.076;25.626;2022-10-16T02:02:36;7.50;;;6.70;;
11604;SDS011;5858;43.076;25.626;2022-10-16T02:05:08;7.87;;;7.07;;
11604;SDS011;5858;43.076;25.626;2022-10-16T02:07:41;8.53;;;7.33;;
11604;SDS011;5858;43.076;25.626;2022-10-16T02:10:09;10.60;;;8.30;;
11604;SDS011;5858;43.076;25.626;2022-10-16T02:12:38;7.07;;;6.23;;
11604;SDS011;5858;43.076;25.626;2022-10-16T02:15:09;9.23;;;6.90;;
11604;SDS011;5858;43.076;25.626;2022-10-16T02:17:36;9.07;;;7.33;;
11604;SDS011;5858;43.076;25.626;2022-10-16T02:20:04;8.73;;;6.73;;
11604;SDS011;5858;43.076;25.626;2022-10-16T02:22:32;9.53;;;7.17;;
11604;SDS011;5858;43.076;25.626;2022-10-16T02:25:03;10.27;;;7.03;;
11604;SDS011;5858;43.076;25.626;2022-10-16T02:27:37;8.40;;;7.50;;
11604;SDS011;5858;43.076;25.626;2022-10-16T02:30:11;8.13;;;6.87;;
11604;SDS011;5858;43.076;25.626;2022-10-16T02:32:41;12.03;;;6.83;;
11604;SDS011;5858;43.076;25.626;2022-10-16T02:35:11;7.73;;;6.27;;
11604;SDS011;5858;43.076;25.626;2022-10-16T02:37:39;10.90;;;6.63;;
11604;SDS011;5858;43.076;25.626;2022-10-16T02:40:08;7.90;;;6.67;;
11604;SDS011;5858;43.076;25.626;2022-10-16T02:42:37;8.57;;;7.00;;
11604;SDS011;5858;43.076;25.626;2022-10-16T02:45:07;10.27;;;6.87;;
11604;SDS011;5858;43.076;25.626;2022-10-16T02:47:36;7.57;;;6.70;;
11604;SDS011;5858;43.076;25.626;2022-10-16T02:50:03;7.73;;;6.27;;
11604;SDS011;5858;43.076;25.626;2022-10-16T02:52:31;8.13;;;6.60;;
11604;SDS011;5858;43.076;25.626;2022-10-16T02:54:58;9.50;;;6.73;;
11604;SDS011;5858;43.076;25.626;2022-10-16T02:57:25;7.63;;;6.63;;
11604;SDS011;5858;43.076;25.626;2022-10-16T02:59:53;8.57;;;6.47;;
11604;SDS011;5858;43.076;25.626;2022-10-16T03:02:20;11.03;;;6.87;;
11604;SDS011;5858;43.076;25.626;2022-10-16T03:04:47;8.30;;;7.27;;
11604;SDS011;5858;43.076;25.626;2022-10-16T03:07:14;7.73;;;6.90;;
11604;SDS011;5858;43.076;25.626;2022-10-16T03:09:41;8.63;;;6.60;;
11604;SDS011;5858;43.076;25.626;2022-10-16T03:12:08;7.60;;;6.80;;
11604;SDS011;5858;43.076;25.626;2022-10-16T03:14:37;8.73;;;6.63;;
11604;SDS011;5858;43.076;25.626;2022-10-16T03:17:06;8.53;;;6.30;;
11604;SDS011;5858;43.076;25.626;2022-10-16T03:19:33;8.63;;;6.53;;
11604;SDS011;5858;43.076;25.626;2022-10-16T03:22:00;10.40;;;7.07;;
11604;SDS011;5858;43.076;25.626;2022-10-16T03:24:28;9.03;;;7.77;;
11604;SDS011;5858;43.076;25.626;2022-10-16T03:26:55;8.80;;;6.97;;
11604;SDS011;5858;43.076;25.626;2022-10-16T03:29:27;8.63;;;7.13;;
11604;SDS011;5858;43.076;25.626;2022-10-16T03:31:54;10.03;;;6.87;;
11604;SDS011;5858;43.076;25.626;2022-10-16T03:34:22;10.50;;;6.80;;
11604;SDS011;5858;43.076;25.626;2022-10-16T03:36:49;10.27;;;6.80;;
11604;SDS011;5858;43.076;25.626;2022-10-16T03:39:17;9.60;;;6.93;;
11604;SDS011;5858;43.076;25.626;2022-10-16T03:41:44;7.80;;;6.97;;
11604;SDS011;5858;43.076;25.626;2022-10-16T03:44:11;9.03;;;6.97;;
11604;SDS011;5858;43.076;25.626;2022-10-16T03:46:38;8.23;;;7.00;;
11604;SDS011;5858;43.076;25.626;2022-10-16T03:49:05;7.33;;;6.57;;
11604;SDS011;5858;43.076;25.626;2022-10-16T03:51:34;9.70;;;6.83;;
11604;SDS011;5858;43.076;25.626;2022-10-16T03:54:00;7.70;;;6.90;;
11604;SDS011;5858;43.076;25.626;2022-10-16T03:56:27;9.33;;;7.30;;
11604;SDS011;5858;43.076;25.626;2022-10-16T03:58:54;7.97;;;6.03;;
11604;SDS011;5858;43.076;25.626;2022-10-16T04:01:21;8.67;;;6.93;;
11604;SDS011;5858;43.076;25.626;2022-10-16T04:03:48;9.63;;;6.70;;
11604;SDS011;5858;43.076;25.626;2022-10-16T04:06:15;9.80;;;7.03;;
11604;SDS011;5858;43.076;25.626;2022-10-16T04:08:43;9.60;;;6.93;;
11604;SDS011;5858;43.076;25.626;2022-10-16T04:11:11;9.27;;;8.07;;
11604;SDS011;5858;43.076;25.626;2022-10-16T04:13:37;12.13;;;8.20;;
11604;SDS011;5858;43.076;25.626;2022-10-16T04:16:04;9.23;;;6.90;;
11604;SDS011;5858;43.076;25.626;2022-10-16T04:18:32;8.67;;;7.40;;
11604;SDS011;5858;43.076;25.626;2022-10-16T04:21:01;9.30;;;7.63;;
11604;SDS011;5858;43.076;25.626;2022-10-16T04:23:29;7.97;;;6.87;;
11604;SDS011;5858;43.076;25.626;2022-10-16T04:25:59;8.67;;;6.63;;
11604;SDS011;5858;43.076;25.626;2022-10-16T04:28:27;8.20;;;7.40;;
11604;SDS011;5858;43.076;25.626;2022-10-16T04:30:54;10.57;;;7.33;;
11604;SDS011;5858;43.076;25.626;2022-10-16T04:33:21;7.63;;;6.40;;
11604;SDS011;5858;43.076;25.626;2022-10-16T04:35:48;8.67;;;6.87;;
11604;SDS011;5858;43.076;25.626;2022-10-16T04:38:22;7.80;;;6.83;;
11604;SDS011;5858;43.076;25.626;2022-10-16T04:40:48;8.80;;;6.93;;
11604;SDS011;5858;43.076;25.626;2022-10-16T04:43:17;6.77;;;6.07;;
11604;SDS011;5858;43.076;25.626;2022-10-16T04:45:44;7.87;;;6.60;;
11604;SDS011;5858;43.076;25.626;2022-10-16T04:48:11;9.90;;;7.13;;
11604;SDS011;5858;43.076;25.626;2022-10-16T04:50:38;10.77;;;7.33;;
11604;SDS011;5858;43.076;25.626;2022-10-16T04:53:04;9.47;;;6.77;;
11604;SDS011;5858;43.076;25.626;2022-10-16T04:55:32;9.33;;;7.27;;
11604;SDS011;5858;43.076;25.626;2022-10-16T04:58:03;10.33;;;7.27;;
11604;SDS011;5858;43.076;25.626;2022-10-16T05:00:31;8.50;;;7.00;;
11604;SDS011;5858;43.076;25.626;2022-10-16T05:02:58;8.67;;;6.80;;
11604;SDS011;5858;43.076;25.626;2022-10-16T05:05:26;7.80;;;7.00;;
11604;SDS011;5858;43.076;25.626;2022-10-16T05:07:53;8.07;;;6.70;;
11604;SDS011;5858;43.076;25.626;2022-10-16T05:10:22;8.33;;;6.53;;
11604;SDS011;5858;43.076;25.626;2022-10-16T05:12:49;7.33;;;6.63;;
11604;SDS011;5858;43.076;25.626;2022-10-16T05:15:16;8.47;;;7.17;;
11604;SDS011;5858;43.076;25.626;2022-10-16T05:17:45;8.33;;;7.40;;
11604;SDS011;5858;43.076;25.626;2022-10-16T05:20:11;12.60;;;7.80;;
11604;SDS011;5858;43.076;25.626;2022-10-16T05:22:38;10.67;;;7.30;;
11604;SDS011;5858;43.076;25.626;2022-10-16T05:25:06;9.43;;;6.53;;
11604;SDS011;5858;43.076;25.626;2022-10-16T05:27:33;7.57;;;6.60;;
11604;SDS011;5858;43.076;25.626;2022-10-16T05:30:00;8.40;;;7.47;;
11604;SDS011;5858;43.076;25.626;2022-10-16T05:32:27;7.37;;;6.27;;
11604;SDS011;5858;43.076;25.626;2022-10-16T05:34:57;8.77;;;6.37;;
11604;SDS011;5858;43.076;25.626;2022-10-16T05:37:35;8.77;;;5.40;;
11604;SDS011;5858;43.076;25.626;2022-10-16T05:40:02;6.80;;;5.80;;
11604;SDS011;5858;43.076;25.626;2022-10-16T05:42:30;7.37;;;5.37;;
11604;SDS011;5858;43.076;25.626;2022-10-16T05:44:57;6.87;;;5.53;;
11604;SDS011;5858;43.076;25.626;2022-10-16T05:47:24;5.73;;;5.07;;
11604;SDS011;5858;43.076;25.626;2022-10-16T05:49:51;7.33;;;5.27;;
11604;SDS011;5858;43.076;25.626;2022-10-16T05:52:19;6.13;;;5.53;;
11604;SDS011;5858;43.076;25.626;2022-10-16T05:54:46;6.53;;;5.17;;
11604;SDS011;5858;43.076;25.626;2022-10-16T05:57:13;6.87;;;5.43;;
11604;SDS011;5858;43.076;25.626;2022-10-16T05:59:41;7.10;;;5.40;;
11604;SDS011;5858;43.076;25.626;2022-10-16T06:02:08;7.87;;;6.43;;
11604;SDS011;5858;43.076;25.626;2022-10-16T06:04:38;9.23;;;6.27;;
11604;SDS011;5858;43.076;25.626;2022-10-16T06:07:05;7.37;;;5.93;;
11604;SDS011;5858;43.076;25.626;2022-10-16T06:09:37;7.27;;;5.90;;
11604;SDS011;5858;43.076;25.626;2022-10-16T06:12:04;7.50;;;6.27;;
11604;SDS011;5858;43.076;25.626;2022-10-16T06:14:31;7.77;;;6.30;;
11604;SDS011;5858;43.076;25.626;2022-10-16T06:16:58;8.73;;;6.13;;
11604;SDS011;5858;43.076;25.626;2022-10-16T06:19:25;9.40;;;6.23;;
11604;SDS011;5858;43.076;25.626;2022-10-16T06:21:52;10.03;;;6.57;;
11604;SDS011;5858;43.076;25.626;2022-10-16T06:24:19;9.87;;;6.90;;
11604;SDS011;5858;43.076;25.626;2022-10-16T06:26:50;10.70;;;7.00;;
11604;SDS011;5858;43.076;25.626;2022-10-16T06:29:17;9.17;;;6.23;;
11604;SDS011;5858;43.076;25.626;2022-10-16T06:31:44;9.50;;;6.57;;
11604;SDS011;5858;43.076;25.626;2022-10-16T06:34:11;8.93;;;6.23;;
11604;SDS011;5858;43.076;25.626;2022-10-16T06:36:38;10.43;;;6.30;;
11604;SDS011;5858;43.076;25.626;2022-10-16T06:39:05;8.87;;;6.87;;
11604;SDS011;5858;43.076;25.626;2022-10-16T06:41:32;8.27;;;6.57;;
11604;SDS011;5858;43.076;25.626;2022-10-16T06:44:04;10.03;;;6.37;;
11604;SDS011;5858;43.076;25.626;2022-10-16T06:46:32;9.27;;;6.47;;
11604;SDS011;5858;43.076;25.626;2022-10-16T06:48:58;9.93;;;6.43;;
11604;SDS011;5858;43.076;25.626;2022-10-16T06:51:25;9.57;;;6.63;;
11604;SDS011;5858;43.076;25.626;2022-10-16T06:53:53;9.97;;;7.30;;
11604;SDS011;5858;43.076;25.626;2022-10-16T06:56:22;8.73;;;6.53;;
11604;SDS011;5858;43.076;25.626;2022-10-16T06:58:50;10.80;;;6.53;;
11604;SDS011;5858;43.076;25.626;2022-10-16T07:01:19;11.13;;;6.57;;
11604;SDS011;5858;43.076;25.626;2022-10-16T07:03:48;9.87;;;7.17;;
11604;SDS011;5858;43.076;25.626;2022-10-16T07:06:19;8.23;;;6.27;;
11604;SDS011;5858;43.076;25.626;2022-10-16T07:08:48;9.57;;;6.97;;
11604;SDS011;5858;43.076;25.626;2022-10-16T07:11:15;9.83;;;7.00;;
11604;SDS011;5858;43.076;25.626;2022-10-16T07:13:47;9.60;;;6.33;;
11604;SDS011;5858;43.076;25.626;2022-10-16T07:16:15;9.03;;;6.53;;
11604;SDS011;5858;43.076;25.626;2022-10-16T07:18:45;9.57;;;6.10;;
11604;SDS011;5858;43.076;25.626;2022-10-16T07:21:15;9.03;;;6.30;;
11604;SDS011;5858;43.076;25.626;2022-10-16T07:23:43;9.87;;;5.83;;
11604;SDS011;5858;43.076;25.626;2022-10-16T07:26:10;7.40;;;5.87;;
11604;SDS011;5858;43.076;25.626;2022-10-16T07:28:38;8.80;;;6.23;;
11604;SDS011;5858;43.076;25.626;2022-10-16T07:31:06;7.67;;;6.70;;
11604;SDS011;5858;43.076;25.626;2022-10-16T07:33:37;10.73;;;6.20;;
11604;SDS011;5858;43.076;25.626;2022-10-16T07:36:06;9.47;;;5.90;;
11604;SDS011;5858;43.076;25.626;2022-10-16T07:38:34;7.27;;;5.87;;
11604;SDS011;5858;43.076;25.626;2022-10-16T07:41:02;9.63;;;6.53;;
11604;SDS011;5858;43.076;25.626;2022-10-16T07:43:30;9.07;;;6.30;;
11604;SDS011;5858;43.076;25.626;2022-10-16T07:45:58;7.90;;;6.20;;
11604;SDS011;5858;43.076;25.626;2022-10-16T07:48:28;7.07;;;5.90;;
11604;SDS011;5858;43.076;25.626;2022-10-16T07:50:57;9.53;;;6.17;;
11604;SDS011;5858;43.076;25.626;2022-10-16T07:53:26;8.90;;;6.23;;
11604;SDS011;5858;43.076;25.626;2022-10-16T07:55:56;6.13;;;5.53;;
11604;SDS011;5858;43.076;25.626;2022-10-16T07:58:27;8.17;;;6.30;;
11604;SDS011;5858;43.076;25.626;2022-10-16T08:00:54;10.53;;;6.27;;
11604;SDS011;5858;43.076;25.626;2022-10-16T08:03:21;9.47;;;5.83;;
11604;SDS011;5858;43.076;25.626;2022-10-16T08:05:48;7.87;;;6.10;;
11604;SDS011;5858;43.076;25.626;2022-10-16T08:08:16;9.73;;;6.10;;
11604;SDS011;5858;43.076;25.626;2022-10-16T08:10:46;7.67;;;6.10;;
11604;SDS011;5858;43.076;25.626;2022-10-16T08:13:16;7.80;;;5.70;;
11604;SDS011;5858;43.076;25.626;2022-10-16T08:15:43;7.67;;;5.77;;
11604;SDS011;5858;43.076;25.626;2022-10-16T08:18:11;7.67;;;5.83;;
11604;SDS011;5858;43.076;25.626;2022-10-16T08:20:39;7.87;;;5.43;;
11604;SDS011;5858;43.076;25.626;2022-10-16T08:23:06;8.00;;;5.40;;
11604;SDS011;5858;43.076;25.626;2022-10-16T08:25:35;8.07;;;5.90;;
11604;SDS011;5858;43.076;25.626;2022-10-16T08:28:04;7.03;;;5.87;;
11604;SDS011;5858;43.076;25.626;2022-10-16T08:30:31;9.63;;;5.80;;
11604;SDS011;5858;43.076;25.626;2022-10-16T08:32:58;6.27;;;4.77;;
11604;SDS011;5858;43.076;25.626;2022-10-16T08:35:25;6.23;;;4.60;;
11604;SDS011;5858;43.076;25.626;2022-10-16T08:37:52;5.10;;;4.13;;
11604;SDS011;5858;43.076;25.626;2022-10-16T08:40:20;9.40;;;4.67;;
11604;SDS011;5858;43.076;25.626;2022-10-16T08:49:15;5.60;;;4.37;;
11604;SDS011;5858;43.076;25.626;2022-10-16T08:51:47;6.17;;;4.80;;
11604;SDS011;5858;43.076;25.626;2022-10-16T08:54:21;8.90;;;4.27;;
11604;SDS011;5858;43.076;25.626;2022-10-16T08:56:55;5.40;;;3.60;;
11604;SDS011;5858;43.076;25.626;2022-10-16T08:59:23;5.13;;;3.93;;
11604;SDS011;5858;43.076;25.626;2022-10-16T09:01:50;5.53;;;4.00;;
11604;SDS011;5858;43.076;25.626;2022-10-16T09:07:23;7.80;;;3.67;;
11604;SDS011;5858;43.076;25.626;2022-10-16T09:10:00;3.90;;;3.50;;
11604;SDS011;5858;43.076;25.626;2022-10-16T09:12:41;3.57;;;3.00;;
11604;SDS011;5858;43.076;25.626;2022-10-16T09:15:15;6.67;;;3.57;;
11604;SDS011;5858;43.076;25.626;2022-10-16T09:17:53;5.97;;;3.17;;
11604;SDS011;5858;43.076;25.626;2022-10-16T09:20:32;3.50;;;2.63;;
11604;SDS011;5858;43.076;25.626;2022-10-16T09:23:12;4.73;;;3.50;;
11604;SDS011;5858;43.076;25.626;2022-10-16T09:25:48;4.47;;;3.20;;
11604;SDS011;5858;43.076;25.626;2022-10-16T09:28:16;4.13;;;3.10;;
11604;SDS011;5858;43.076;25.626;2022-10-16T09:30:44;4.13;;;2.90;;
11604;SDS011;5858;43.076;25.626;2022-10-16T09:33:13;3.70;;;2.90;;
11604;SDS011;5858;43.076;25.626;2022-10-16T09:35:50;5.53;;;3.83;;
11604;SDS011;5858;43.076;25.626;2022-10-16T09:38:25;6.18;;;3.80;;
11604;SDS011;5858;43.076;25.626;2022-10-16T09:40:56;3.60;;;2.73;;
11604;SDS011;5858;43.076;25.626;2022-10-16T09:43:25;5.60;;;3.03;;
11604;SDS011;5858;43.076;25.626;2022-10-16T09:45:58;5.03;;;3.00;;
11604;SDS011;5858;43.076;25.626;2022-10-16T09:48:28;5.13;;;2.70;;
11604;SDS011;5858;43.076;25.626;2022-10-16T09:53:56;3.10;;;2.37;;
11604;SDS011;5858;43.076;25.626;2022-10-16T09:56:26;6.47;;;2.70;;
11604;SDS011;5858;43.076;25.626;2022-10-16T09:58:55;5.30;;;3.00;;
11604;SDS011;5858;43.076;25.626;2022-10-16T10:01:25;5.47;;;3.53;;
11604;SDS011;5858;43.076;25.626;2022-10-16T10:03:57;3.73;;;2.83;;
11604;SDS011;5858;43.076;25.626;2022-10-16T10:06:30;3.33;;;2.55;;
11604;SDS011;5858;43.076;25.626;2022-10-16T10:09:02;3.95;;;2.85;;
11604;SDS011;5858;43.076;25.626;2022-10-16T10:11:46;3.20;;;2.90;;
11604;SDS011;5858;43.076;25.626;2022-10-16T10:14:18;6.43;;;2.90;;
11604;SDS011;5858;43.076;25.626;2022-10-16T10:16:47;5.50;;;3.03;;
11604;SDS011;5858;43.076;25.626;2022-10-16T10:19:16;3.97;;;2.47;;
11604;SDS011;5858;43.076;25.626;2022-10-16T10:21:46;4.43;;;3.05;;
11604;SDS011;5858;43.076;25.626;2022-10-16T10:24:19;4.25;;;3.20;;
11604;SDS011;5858;43.076;25.626;2022-10-16T10:26:48;6.72;;;3.30;;
11604;SDS011;5858;43.076;25.626;2022-10-16T10:29:28;6.45;;;3.17;;
11604;SDS011;5858;43.076;25.626;2022-10-16T10:32:09;4.07;;;2.80;;
11604;SDS011;5858;43.076;25.626;2022-10-16T10:34:47;4.77;;;3.00;;
11604;SDS011;5858;43.076;25.626;2022-10-16T10:37:31;4.97;;;3.43;;
11604;SDS011;5858;43.076;25.626;2022-10-16T10:40:13;3.30;;;2.90;;
11604;SDS011;5858;43.076;25.626;2022-10-16T10:42:56;3.17;;;2.83;;
11604;SDS011;5858;43.076;25.626;2022-10-16T10:45:36;3.92;;;3.03;;
11604;SDS011;5858;43.076;25.626;2022-10-16T10:48:19;5.43;;;3.80;;
11604;SDS011;5858;43.076;25.626;2022-10-16T10:51:00;7.40;;;3.05;;
11604;SDS011;5858;43.076;25.626;2022-10-16T10:53:37;6.00;;;3.00;;
11604;SDS011;5858;43.076;25.626;2022-10-16T10:56:15;6.75;;;3.17;;
11604;SDS011;5858;43.076;25.626;2022-10-16T10:59:02;5.57;;;3.20;;
11604;SDS011;5858;43.076;25.626;2022-10-16T11:01:44;6.28;;;4.18;;
11604;SDS011;5858;43.076;25.626;2022-10-16T11:07:19;4.05;;;3.00;;
11604;SDS011;5858;43.076;25.626;2022-10-16T11:09:55;4.32;;;3.45;;
11604;SDS011;5858;43.076;25.626;2022-10-16T11:12:29;3.72;;;3.35;;
11604;SDS011;5858;43.076;25.626;2022-10-16T11:15:02;3.80;;;3.38;;
11604;SDS011;5858;43.076;25.626;2022-10-16T11:17:35;5.50;;;3.55;;
11604;SDS011;5858;43.076;25.626;2022-10-16T11:20:11;5.13;;;3.38;;
11604;SDS011;5858;43.076;25.626;2022-10-16T11:22:42;4.63;;;3.60;;
11604;SDS011;5858;43.076;25.626;2022-10-16T11:25:16;4.32;;;3.65;;
11604;SDS011;5858;43.076;25.626;2022-10-16T11:27:49;5.30;;;3.47;;
11604;SDS011;5858;43.076;25.626;2022-10-16T11:30:21;3.97;;;3.30;;
11604;SDS011;5858;43.076;25.626;2022-10-16T11:35:42;7.57;;;3.40;;
11604;SDS011;5858;43.076;25.626;2022-10-16T11:38:14;3.65;;;3.20;;
11604;SDS011;5858;43.076;25.626;2022-10-16T11:40:49;8.48;;;3.88;;
11604;SDS011;5858;43.076;25.626;2022-10-16T11:43:32;4.72;;;3.50;;
11604;SDS011;5858;43.076;25.626;2022-10-16T11:46:04;5.18;;;3.22;;
11604;SDS011;5858;43.076;25.626;2022-10-16T11:48:43;5.32;;;3.53;;
11604;SDS011;5858;43.076;25.626;2022-10-16T11:51:20;4.50;;;3.13;;
11604;SDS011;5858;43.076;25.626;2022-10-16T11:54:02;3.75;;;3.05;;
11604;SDS011;5858;43.076;25.626;2022-10-16T11:56:59;4.68;;;3.30;;
11604;SDS011;5858;43.076;25.626;2022-10-16T11:59:38;3.90;;;3.22;;
11604;SDS011;5858;43.076;25.626;2022-10-16T12:02:28;6.18;;;4.10;;
11604;SDS011;5858;43.076;25.626;2022-10-16T12:05:05;5.40;;;3.80;;
11604;SDS011;5858;43.076;25.626;2022-10-16T12:07:46;6.70;;;3.28;;
11604;SDS011;5858;43.076;25.626;2022-10-16T12:10:20;6.80;;;3.25;;
11604;SDS011;5858;43.076;25.626;2022-10-16T12:12:49;4.13;;;3.25;;
11604;SDS011;5858;43.076;25.626;2022-10-16T12:15:22;3.85;;;3.40;;
11604;SDS011;5858;43.076;25.626;2022-10-16T12:17:51;6.55;;;3.80;;
11604;SDS011;5858;43.076;25.626;2022-10-16T12:20:24;3.33;;;3.03;;
11604;SDS011;5858;43.076;25.626;2022-10-16T12:22:56;5.22;;;3.05;;
11604;SDS011;5858;43.076;25.626;2022-10-16T12:25:28;4.32;;;2.97;;
11604;SDS011;5858;43.076;25.626;2022-10-16T12:28:02;6.05;;;3.30;;
11604;SDS011;5858;43.076;25.626;2022-10-16T12:30:54;4.43;;;3.35;;
11604;SDS011;5858;43.076;25.626;2022-10-16T12:33:25;7.82;;;3.05;;
11604;SDS011;5858;43.076;25.626;2022-10-16T12:35:54;3.75;;;3.05;;
11604;SDS011;5858;43.076;25.626;2022-10-16T12:38:27;4.22;;;3.60;;
11604;SDS011;5858;43.076;25.626;2022-10-16T12:41:11;4.10;;;2.60;;
11604;SDS011;5858;43.076;25.626;2022-10-16T12:43:40;4.13;;;2.88;;
11604;SDS011;5858;43.076;25.626;2022-10-16T12:49:21;5.03;;;2.55;;
11604;SDS011;5858;43.076;25.626;2022-10-16T12:51:56;5.15;;;3.30;;
11604;SDS011;5858;43.076;25.626;2022-10-16T12:54:25;3.42;;;3.00;;
11604;SDS011;5858;43.076;25.626;2022-10-16T12:57:06;3.35;;;2.95;;
11604;SDS011;5858;43.076;25.626;2022-10-16T13:00:12;4.15;;;3.20;;
11604;SDS011;5858;43.076;25.626;2022-10-16T13:03:11;3.17;;;2.88;;
11604;SDS011;5858;43.076;25.626;2022-10-16T13:06:00;4.60;;;2.70;;
11604;SDS011;5858;43.076;25.626;2022-10-16T13:08:41;3.75;;;2.90;;
11604;SDS011;5858;43.076;25.626;2022-10-16T13:11:35;5.63;;;2.92;;
11604;SDS011;5858;43.076;25.626;2022-10-16T13:14:32;3.95;;;3.08;;
11604;SDS011;5858;43.076;25.626;2022-10-16T13:17:11;4.57;;;2.95;;
11604;SDS011;5858;43.076;25.626;2022-10-16T13:19:51;3.25;;;2.85;;
11604;SDS011;5858;43.076;25.626;2022-10-16T13:22:28;4.95;;;3.05;;
11604;SDS011;5858;43.076;25.626;2022-10-16T13:25:16;3.85;;;3.30;;
11604;SDS011;5858;43.076;25.626;2022-10-16T13:27:52;5.05;;;3.15;;
11604;SDS011;5858;43.076;25.626;2022-10-16T13:30:30;4.72;;;2.92;;
11604;SDS011;5858;43.076;25.626;2022-10-16T13:33:02;4.95;;;3.15;;
11604;SDS011;5858;43.076;25.626;2022-10-16T13:39:29;4.10;;;3.70;;
11604;SDS011;5858;43.076;25.626;2022-10-16T13:42:54;3.47;;;2.72;;
11604;SDS011;5858;43.076;25.626;2022-10-16T13:52:58;4.53;;;2.85;;
11604;SDS011;5858;43.076;25.626;2022-10-16T13:59:05;3.35;;;3.00;;
11604;SDS011;5858;43.076;25.626;2022-10-16T14:02:10;4.38;;;3.65;;
11604;SDS011;5858;43.076;25.626;2022-10-16T14:05:15;4.78;;;3.38;;
11604;SDS011;5858;43.076;25.626;2022-10-16T14:08:17;2.85;;;2.55;;
11604;SDS011;5858;43.076;25.626;2022-10-16T14:10:49;3.65;;;2.85;;
11604;SDS011;5858;43.076;25.626;2022-10-16T14:13:25;5.07;;;2.97;;
11604;SDS011;5858;43.076;25.626;2022-10-16T14:16:25;4.38;;;2.90;;
11604;SDS011;5858;43.076;25.626;2022-10-16T14:18:57;9.77;;;3.05;;
11604;SDS011;5858;43.076;25.626;2022-10-16T14:21:27;3.53;;;2.55;;
11604;SDS011;5858;43.076;25.626;2022-10-16T14:23:55;4.15;;;3.17;;
11604;SDS011;5858;43.076;25.626;2022-10-16T14:26:26;3.17;;;2.70;;
11604;SDS011;5858;43.076;25.626;2022-10-16T14:29:08;4.55;;;3.05;;
11604;SDS011;5858;43.076;25.626;2022-10-16T14:31:38;2.97;;;2.65;;
11604;SDS011;5858;43.076;25.626;2022-10-16T14:34:27;4.50;;;3.35;;
11604;SDS011;5858;43.076;25.626;2022-10-16T14:36:59;3.45;;;2.83;;
11604;SDS011;5858;43.076;25.626;2022-10-16T14:39:41;3.38;;;2.65;;
11604;SDS011;5858;43.076;25.626;2022-10-16T14:42:19;4.95;;;3.42;;
11604;SDS011;5858;43.076;25.626;2022-10-16T14:50:45;5.85;;;3.85;;
11604;SDS011;5858;43.076;25.626;2022-10-16T14:53:17;8.75;;;4.97;;
11604;SDS011;5858;43.076;25.626;2022-10-16T14:55:49;4.77;;;3.73;;
11604;SDS011;5858;43.076;25.626;2022-10-16T14:58:19;12.17;;;5.77;;
11604;SDS011;5858;43.076;25.626;2022-10-16T15:00:59;9.85;;;4.82;;
11604;SDS011;5858;43.076;25.626;2022-10-16T15:03:37;27.07;;;12.13;;
11604;SDS011;5858;43.076;25.626;2022-10-16T15:06:20;27.67;;;12.73;;
11604;SDS011;5858;43.076;25.626;2022-10-16T15:08:50;11.45;;;6.22;;
11604;SDS011;5858;43.076;25.626;2022-10-16T15:11:21;3.88;;;3.22;;
11604;SDS011;5858;43.076;25.626;2022-10-16T15:13:49;4.30;;;3.50;;
11604;SDS011;5858;43.076;25.626;2022-10-16T15:16:33;3.30;;;3.00;;
11604;SDS011;5858;43.076;25.626;2022-10-16T15:19:03;7.00;;;4.32;;
11604;SDS011;5858;43.076;25.626;2022-10-16T15:21:33;5.10;;;3.60;;
11604;SDS011;5858;43.076;25.626;2022-10-16T15:24:15;4.07;;;2.83;;
11604;SDS011;5858;43.076;25.626;2022-10-16T15:26:43;16.50;;;8.73;;
11604;SDS011;5858;43.076;25.626;2022-10-16T15:29:14;12.77;;;6.33;;
11604;SDS011;5858;43.076;25.626;2022-10-16T15:31:48;35.47;;;18.73;;
11604;SDS011;5858;43.076;25.626;2022-10-16T15:34:16;17.10;;;10.43;;
11604;SDS011;5858;43.076;25.626;2022-10-16T15:36:44;26.80;;;14.33;;
11604;SDS011;5858;43.076;25.626;2022-10-16T15:39:13;8.60;;;5.97;;
11604;SDS011;5858;43.076;25.626;2022-10-16T15:41:55;12.80;;;5.77;;
11604;SDS011;5858;43.076;25.626;2022-10-16T15:44:27;8.97;;;4.70;;
11604;SDS011;5858;43.076;25.626;2022-10-16T15:47:20;9.17;;;4.60;;
11604;SDS011;5858;43.076;25.626;2022-10-16T15:49:58;4.33;;;3.50;;
11604;SDS011;5858;43.076;25.626;2022-10-16T15:52:29;6.57;;;3.90;;
11604;SDS011;5858;43.076;25.626;2022-10-16T15:55:03;4.07;;;3.67;;
11604;SDS011;5858;43.076;25.626;2022-10-16T15:57:32;5.47;;;3.37;;